createdAt,value
2018-06-12T00:01:49.629Z,17.35
2018-06-12T00:04:19.672Z,17.31
2018-06-12T00:06:49.886Z,17.25
2018-06-12T00:09:19.943Z,17.34
2018-06-12T00:11:50.124Z,17.36
2018-06-12T00:14:21.191Z,17.35
2018-06-12T00:16:51.266Z,17.32
2018-06-12T00:19:21.507Z,17.34
2018-06-12T00:21:51.458Z,17.36
2018-06-12T00:24:21.529Z,17.46
2018-06-12T00:26:51.653Z,17.51
2018-06-12T00:29:21.600Z,17.50
2018-06-12T00:31:51.654Z,17.52
2018-06-12T00:34:21.764Z,17.51
2018-06-12T00:36:52.009Z,17.55
2018-06-12T00:39:22.053Z,17.60
2018-06-12T00:41:51.943Z,17.61
2018-06-12T00:44:21.972Z,17.63
2018-06-12T00:46:53.108Z,17.71
2018-06-12T00:49:23.029Z,17.71
2018-06-12T00:51:52.948Z,17.75
2018-06-12T00:54:24.139Z,17.80
2018-06-12T00:57:04.920Z,17.79
2018-06-12T00:59:34.942Z,17.73
2018-06-12T01:02:06.412Z,17.61
2018-06-12T01:04:37.073Z,17.53
2018-06-12T01:07:07.084Z,17.44
2018-06-12T01:09:37.794Z,17.41
2018-06-12T01:12:07.967Z,17.44
2018-06-12T01:14:37.936Z,17.45
2018-06-12T01:17:08.279Z,17.48
2018-06-12T01:19:38.525Z,17.54
2018-06-12T01:22:08.456Z,17.64
2018-06-12T01:24:38.703Z,17.74
2018-06-12T01:27:08.841Z,17.69
2018-06-12T01:29:39.043Z,17.70
2018-06-12T01:32:09.144Z,17.65
2018-06-12T01:34:39.175Z,17.55
2018-06-12T01:37:09.516Z,17.51
2018-06-12T01:39:39.748Z,17.50
2018-06-12T01:42:09.992Z,17.42
2018-06-12T01:44:41.224Z,17.36
2018-06-12T01:47:11.247Z,17.29
2018-06-12T01:49:41.130Z,17.14
2018-06-12T01:52:11.499Z,17.05
2018-06-12T01:54:41.622Z,17.04
2018-06-12T01:57:12.490Z,17.09
2018-06-12T01:59:42.792Z,17.12
2018-06-12T02:02:13.134Z,17.15
2018-06-12T02:04:43.682Z,17.16
2018-06-12T02:07:14.000Z,17.18
2018-06-12T02:09:44.534Z,17.20
2018-06-12T02:12:14.753Z,17.18
2018-06-12T02:14:44.729Z,17.21
2018-06-12T02:17:14.998Z,17.23
2018-06-12T02:19:45.298Z,17.24
2018-06-12T02:22:15.551Z,17.28
2018-06-12T02:24:45.599Z,17.28
2018-06-12T02:27:15.744Z,17.28
2018-06-12T02:29:46.013Z,17.28
2018-06-12T02:32:17.184Z,17.30
2018-06-12T02:34:47.296Z,17.32
2018-06-12T02:37:17.563Z,17.35
2018-06-12T02:39:47.585Z,17.35
2018-06-12T02:42:18.068Z,17.43
2018-06-12T02:44:48.079Z,17.49
2018-06-12T02:47:18.628Z,17.50
2018-06-12T02:49:48.708Z,17.50
2018-06-12T02:52:18.795Z,17.51
2018-06-12T02:54:48.870Z,17.49
2018-06-12T02:57:18.811Z,17.43
2018-06-12T02:59:49.011Z,17.36
2018-06-12T03:02:19.043Z,17.32
2018-06-12T03:04:49.017Z,17.30
2018-06-12T03:07:19.165Z,17.33
2018-06-12T03:09:49.525Z,17.33
2018-06-12T03:12:19.884Z,17.30
2018-06-12T03:14:49.990Z,17.31
2018-06-12T03:17:20.055Z,17.29
2018-06-12T03:19:50.200Z,17.24
2018-06-12T03:22:20.384Z,17.19
2018-06-12T03:24:50.379Z,17.11
2018-06-12T03:27:20.569Z,17.03
2018-06-12T03:29:50.815Z,16.94
2018-06-12T03:32:20.992Z,16.85
2018-06-12T03:34:51.085Z,16.80
2018-06-12T03:37:20.977Z,16.74
2018-06-12T03:39:50.925Z,16.68
2018-06-12T03:42:21.214Z,16.61
2018-06-12T03:44:51.289Z,16.55
2018-06-12T03:47:21.298Z,16.50
2018-06-12T03:49:52.336Z,16.48
2018-06-12T03:52:26.340Z,16.46
2018-06-12T03:54:56.584Z,16.45
2018-06-12T03:57:26.732Z,16.48
2018-06-12T03:59:56.678Z,16.47
2018-06-12T04:02:26.944Z,16.53
2018-06-12T04:04:58.253Z,16.54
2018-06-12T04:07:28.564Z,16.64
2018-06-12T04:09:58.477Z,16.69
2018-06-12T04:12:28.586Z,16.62
2018-06-12T04:14:58.785Z,16.56
2018-06-12T04:17:28.904Z,16.49
2018-06-12T04:19:59.051Z,16.44
2018-06-12T04:22:29.062Z,16.40
2018-06-12T04:24:59.059Z,16.45
2018-06-12T04:27:29.103Z,16.44
2018-06-12T04:29:59.258Z,16.38
2018-06-12T04:32:29.163Z,16.38
2018-06-12T04:34:59.206Z,16.34
2018-06-12T04:37:29.395Z,16.31
2018-06-12T04:39:59.525Z,16.33
2018-06-12T04:42:29.768Z,16.30
2018-06-12T04:44:59.829Z,16.28
2018-06-12T04:47:30.066Z,16.29
2018-06-12T04:50:00.015Z,16.29
2018-06-12T04:52:30.836Z,16.29
2018-06-12T04:55:01.042Z,16.31
2018-06-12T04:57:30.944Z,16.31
2018-06-12T05:00:01.246Z,16.34
2018-06-12T05:02:31.384Z,16.36
2018-06-12T05:05:01.366Z,16.41
2018-06-12T05:07:31.715Z,16.43
2018-06-12T05:10:01.691Z,16.46
2018-06-12T05:12:32.988Z,16.49
2018-06-12T05:15:03.108Z,16.56
2018-06-12T05:17:33.107Z,16.57
2018-06-12T05:20:03.623Z,16.60
2018-06-12T05:22:33.846Z,16.64
2018-06-12T05:25:03.916Z,16.63
2018-06-12T05:27:33.821Z,16.66
2018-06-12T05:30:03.895Z,16.68
2018-06-12T05:32:33.937Z,16.70
2018-06-12T05:35:21.751Z,16.77
2018-06-12T05:37:51.948Z,16.81
2018-06-12T05:40:22.035Z,16.77
2018-06-12T05:42:51.989Z,16.73
2018-06-12T05:45:22.041Z,16.74
2018-06-12T05:47:52.462Z,16.72
2018-06-12T05:50:22.561Z,16.76
2018-06-12T05:52:52.530Z,16.81
2018-06-12T05:55:22.858Z,16.81
2018-06-12T05:57:52.912Z,16.83
2018-06-12T06:00:23.105Z,16.81
2018-06-12T06:02:53.387Z,16.86
2018-06-12T06:05:23.427Z,16.89
2018-06-12T06:07:53.951Z,16.88
2018-06-12T06:10:24.420Z,16.88
2018-06-12T06:12:54.420Z,16.86
2018-06-12T06:15:24.378Z,16.85
2018-06-12T06:17:55.921Z,16.79
2018-06-12T06:20:26.212Z,16.76
2018-06-12T06:22:56.452Z,16.74
2018-06-12T06:25:26.732Z,16.75
2018-06-12T06:27:56.736Z,16.78
2018-06-12T06:30:27.074Z,16.79
2018-06-12T06:32:57.283Z,16.79
2018-06-12T06:35:27.236Z,16.80
2018-06-12T06:37:57.277Z,16.82
2018-06-12T06:40:27.220Z,16.87
2018-06-12T06:42:57.265Z,16.90
2018-06-12T06:45:27.344Z,16.92
2018-06-12T06:47:57.512Z,16.98
2018-06-12T06:50:27.430Z,17.07
2018-06-12T06:52:57.583Z,17.14
2018-06-12T06:55:27.715Z,17.21
2018-06-12T06:57:57.856Z,17.27
2018-06-12T07:00:28.023Z,17.27
2018-06-12T07:02:58.136Z,17.34
2018-06-12T07:05:28.188Z,17.36
2018-06-12T07:07:58.275Z,17.40
2018-06-12T07:10:28.199Z,17.51
2018-06-12T07:12:58.296Z,17.57
2018-06-12T07:15:28.168Z,17.66
2018-06-12T07:17:59.426Z,17.80
2018-06-12T07:21:06.198Z,17.94
2018-06-12T07:23:37.323Z,18.09
2018-06-12T07:26:07.504Z,18.26
2018-06-12T07:28:37.712Z,18.33
2018-06-12T07:31:07.895Z,18.43
2018-06-12T07:33:38.048Z,18.52
2018-06-12T07:36:08.567Z,18.51
2018-06-12T07:38:38.806Z,18.55
2018-06-12T07:41:08.913Z,18.63
2018-06-12T07:43:39.183Z,18.66
2018-06-12T07:46:09.452Z,18.82
2018-06-12T07:48:40.170Z,18.86
2018-06-12T07:51:11.241Z,18.99
2018-06-12T07:53:41.431Z,19.20
2018-06-12T07:56:11.514Z,19.39
2018-06-12T07:58:41.707Z,19.42
2018-06-12T08:01:12.068Z,19.43
2018-06-12T08:03:42.217Z,19.59
2018-06-12T08:06:12.188Z,19.77
2018-06-12T08:08:42.279Z,20.04
2018-06-12T08:11:12.364Z,20.01
2018-06-12T08:13:42.240Z,19.94
2018-06-12T08:16:12.671Z,19.94
2018-06-12T08:18:43.492Z,20.02
2018-06-12T08:21:13.664Z,20.14
2018-06-12T08:23:43.726Z,20.25
2018-06-12T08:26:13.986Z,20.47
2018-06-12T08:28:44.347Z,20.70
2018-06-12T08:31:14.455Z,20.73
2018-06-12T08:33:44.781Z,20.73
2018-06-12T08:36:14.867Z,20.91
2018-06-12T08:38:45.031Z,20.69
2018-06-12T08:41:15.380Z,20.78
2018-06-12T08:43:45.686Z,20.79
2018-06-12T08:46:15.544Z,20.79
2018-06-12T08:48:45.811Z,20.79
2018-06-12T08:51:15.752Z,20.86
2018-06-12T08:53:46.098Z,20.99
2018-06-12T08:56:16.266Z,20.99
2018-06-12T08:58:46.494Z,21.13
2018-06-12T09:01:16.421Z,21.34
2018-06-12T09:03:46.617Z,21.49
2018-06-12T09:06:16.916Z,21.56
2018-06-12T09:08:46.961Z,21.50
2018-06-12T09:11:17.180Z,21.44
2018-06-12T09:13:47.514Z,21.49
2018-06-12T09:16:17.695Z,21.59
2018-06-12T09:18:47.942Z,21.44
2018-06-12T09:21:18.147Z,21.30
2018-06-12T09:23:48.092Z,21.32
2018-06-12T09:26:18.105Z,21.28
2018-06-12T09:28:48.766Z,21.21
2018-06-12T09:31:18.878Z,21.04
2018-06-12T09:33:49.123Z,20.88
2018-06-12T09:36:24.098Z,20.60
2018-06-12T09:39:03.680Z,20.60
2018-06-12T09:41:33.801Z,20.54
2018-06-12T09:44:03.951Z,20.75
2018-06-12T09:46:33.882Z,20.97
2018-06-12T09:49:04.097Z,21.19
2018-06-12T09:51:34.207Z,21.42
2018-06-12T09:54:04.642Z,21.37
2018-06-12T09:56:34.876Z,21.42
2018-06-12T09:59:05.158Z,21.29
2018-06-12T10:01:35.317Z,21.18
2018-06-12T10:04:05.304Z,21.49
2018-06-12T10:06:35.633Z,21.70
2018-06-12T10:09:07.285Z,21.84
2018-06-12T10:11:37.414Z,21.72
2018-06-12T10:14:08.599Z,21.57
2018-06-12T10:16:39.770Z,21.72
2018-06-12T10:19:13.125Z,21.82
2018-06-12T10:21:43.322Z,21.87
2018-06-12T10:24:13.456Z,21.97
2018-06-12T10:26:43.618Z,22.13
2018-06-12T10:29:13.886Z,22.15
2018-06-12T10:31:44.227Z,22.42
2018-06-12T10:34:14.309Z,22.44
2018-06-12T10:36:44.480Z,22.32
2018-06-12T10:39:14.618Z,22.07
2018-06-12T10:41:44.622Z,22.06
2018-06-12T10:44:15.821Z,21.94
2018-06-12T10:46:46.015Z,22.09
2018-06-12T10:49:16.022Z,22.39
2018-06-12T10:51:46.036Z,22.54
2018-06-12T10:54:16.289Z,22.93
2018-06-12T10:56:46.246Z,23.18
2018-06-12T10:59:16.569Z,23.46
2018-06-12T11:01:46.730Z,23.66
2018-06-12T11:04:16.778Z,23.71
2018-06-12T11:06:46.992Z,23.56
2018-06-12T11:09:17.172Z,23.33
2018-06-12T11:11:47.381Z,23.30
2018-06-12T11:14:17.300Z,23.51
2018-06-12T11:16:47.636Z,23.95
2018-06-12T11:19:17.676Z,24.53
2018-06-12T11:21:47.805Z,24.26
2018-06-12T11:24:17.827Z,24.35
2018-06-12T11:26:48.028Z,24.89
2018-06-12T11:29:18.146Z,25.08
2018-06-12T11:31:50.297Z,25.52
2018-06-12T11:34:20.272Z,25.38
2018-06-12T11:36:50.601Z,25.92
2018-06-12T11:39:20.590Z,25.97
2018-06-12T11:41:50.833Z,25.70
2018-06-12T11:44:20.985Z,25.72
2018-06-12T11:46:51.142Z,25.38
2018-06-12T11:49:21.296Z,25.97
2018-06-12T11:51:51.386Z,26.04
2018-06-12T11:54:21.645Z,25.98
2018-06-12T11:56:51.879Z,26.50
2018-06-12T11:59:22.629Z,26.66
2018-06-12T12:01:52.491Z,27.12
2018-06-12T12:04:22.642Z,26.93
2018-06-12T12:06:52.809Z,27.24
2018-06-12T12:09:22.679Z,27.05
2018-06-12T12:11:52.811Z,27.13
2018-06-12T12:14:22.951Z,26.94
2018-06-12T12:16:53.079Z,27.24
2018-06-12T12:19:23.141Z,27.44
2018-06-12T12:21:53.675Z,27.53
2018-06-12T12:24:23.836Z,27.88
2018-06-12T12:26:53.918Z,27.08
2018-06-12T12:29:23.878Z,26.35
2018-06-12T12:31:54.060Z,26.49
2018-06-12T12:34:24.407Z,26.74
2018-06-12T12:36:54.485Z,26.76
2018-06-12T12:39:24.398Z,26.55
2018-06-12T12:41:54.523Z,26.58
2018-06-12T12:44:24.761Z,26.82
2018-06-12T12:46:54.933Z,26.83
2018-06-12T12:49:25.131Z,26.96
2018-06-12T12:51:55.307Z,27.08
2018-06-12T12:54:25.583Z,26.99
2018-06-12T12:56:55.827Z,27.47
2018-06-12T12:59:25.762Z,27.53
2018-06-12T13:01:55.893Z,27.42
2018-06-12T13:04:25.997Z,27.27
2018-06-12T13:06:56.338Z,27.31
2018-06-12T13:09:26.683Z,27.40
2018-06-12T13:11:56.933Z,27.80
2018-06-12T13:14:26.991Z,27.65
2018-06-12T13:16:57.384Z,27.67
2018-06-12T13:19:28.923Z,27.25
2018-06-12T13:21:59.057Z,27.32
2018-06-12T13:24:29.150Z,27.54
2018-06-12T13:26:59.249Z,27.41
2018-06-12T13:29:29.198Z,27.74
2018-06-12T13:31:59.237Z,27.62
2018-06-12T13:34:29.509Z,27.47
2018-06-12T13:36:59.647Z,27.05
2018-06-12T13:39:29.803Z,27.43
2018-06-12T13:41:59.923Z,27.51
2018-06-12T13:44:30.353Z,27.87
2018-06-12T13:47:00.458Z,27.70
2018-06-12T13:49:31.325Z,27.18
2018-06-12T13:52:01.548Z,27.19
2018-06-12T13:54:31.639Z,27.19
2018-06-12T13:57:01.467Z,27.06
2018-06-12T13:59:31.508Z,27.25
2018-06-12T14:02:01.368Z,27.71
2018-06-12T14:04:31.667Z,27.82
2018-06-12T14:07:01.848Z,27.32
2018-06-12T14:09:31.891Z,27.42
2018-06-12T14:12:02.114Z,27.50
2018-06-12T14:14:32.314Z,27.84
2018-06-12T14:17:02.495Z,28.24
2018-06-12T14:19:32.891Z,28.50
2018-06-12T14:22:03.499Z,28.54
2018-06-12T14:24:33.846Z,28.73
2018-06-12T14:27:04.033Z,28.81
2018-06-12T14:29:34.158Z,28.95
2018-06-12T14:32:04.221Z,28.98
2018-06-12T14:34:34.130Z,28.82
2018-06-12T14:37:04.273Z,28.85
2018-06-12T14:39:35.225Z,29.01
2018-06-12T14:42:05.719Z,28.88
2018-06-12T14:44:37.302Z,28.28
2018-06-12T14:47:07.436Z,28.18
2018-06-12T14:49:37.474Z,28.15
2018-06-12T14:52:07.609Z,28.19
2018-06-12T14:54:37.708Z,28.28
2018-06-12T14:57:07.807Z,28.31
2018-06-12T14:59:37.917Z,28.40
2018-06-12T15:02:08.411Z,28.96
2018-06-12T15:04:38.399Z,29.37
2018-06-12T15:07:08.663Z,29.70
2018-06-12T15:09:38.862Z,29.86
2018-06-12T15:12:09.124Z,29.42
2018-06-12T15:14:39.438Z,29.36
2018-06-12T15:17:09.365Z,29.23
2018-06-12T15:19:39.585Z,29.31
2018-06-12T15:22:09.502Z,29.55
2018-06-12T15:24:39.751Z,29.32
2018-06-12T15:27:10.043Z,29.79
2018-06-12T15:29:40.101Z,30.11
2018-06-12T15:32:10.312Z,30.24
2018-06-12T15:34:40.121Z,29.90
2018-06-12T15:37:10.952Z,29.84
2018-06-12T15:39:41.005Z,29.67
2018-06-12T15:42:11.045Z,29.85
2018-06-12T15:44:41.102Z,30.20
2018-06-12T15:47:11.318Z,30.50
2018-06-12T15:49:41.478Z,30.98
2018-06-12T15:52:11.536Z,31.49
2018-06-12T15:54:41.867Z,31.81
2018-06-12T15:57:12.180Z,31.65
2018-06-12T15:59:42.338Z,31.90
2018-06-12T16:02:12.550Z,31.26
2018-06-12T16:04:42.640Z,30.67
2018-06-12T16:07:12.789Z,30.65
2018-06-12T16:09:42.929Z,31.04
2018-06-12T16:12:12.852Z,30.94
2018-06-12T16:14:43.405Z,30.99
2018-06-12T16:17:14.530Z,31.32
2018-06-12T16:19:44.758Z,30.97
2018-06-12T16:22:14.858Z,31.45
2018-06-12T16:24:44.960Z,31.64
2018-06-12T16:27:15.077Z,31.87
2018-06-12T16:29:45.454Z,31.35
2018-06-12T16:32:15.472Z,31.79
2018-06-12T16:34:45.710Z,32.05
2018-06-12T16:37:16.187Z,32.23
2018-06-12T16:39:46.447Z,32.27
2018-06-12T16:42:16.715Z,31.63
2018-06-12T16:44:46.677Z,31.47
2018-06-12T16:47:16.814Z,31.37
2018-06-12T16:49:46.994Z,31.60
2018-06-12T16:52:17.306Z,31.45
2018-06-12T16:54:47.351Z,31.40
2018-06-12T16:57:18.333Z,31.31
2018-06-12T16:59:48.385Z,30.88
2018-06-12T17:02:18.743Z,30.36
2018-06-12T17:04:49.034Z,30.19
2018-06-12T17:07:19.214Z,30.10
2018-06-12T17:09:49.182Z,29.79
2018-06-12T17:12:19.525Z,30.33
2018-06-12T17:14:49.665Z,30.57
2018-06-12T17:17:19.516Z,30.17
2018-06-12T17:19:49.718Z,29.90
2018-06-12T17:22:19.655Z,29.61
2018-06-12T17:24:49.649Z,29.24
2018-06-12T17:27:19.692Z,28.85
2018-06-12T17:29:49.864Z,28.82
2018-06-12T17:32:21.028Z,28.32
2018-06-12T17:34:51.234Z,28.10
2018-06-12T17:37:21.274Z,28.00
2018-06-12T17:39:51.500Z,27.70
2018-06-12T17:42:21.604Z,27.62
2018-06-12T17:44:51.847Z,27.39
2018-06-12T17:47:22.103Z,27.19
2018-06-12T17:49:52.258Z,27.02
2018-06-12T17:52:22.545Z,27.00
2018-06-12T17:54:53.556Z,26.80
2018-06-12T17:57:23.673Z,26.69
2018-06-12T17:59:53.614Z,26.56
2018-06-12T18:02:23.739Z,26.39
2018-06-12T18:04:53.685Z,26.43
2018-06-12T18:07:23.944Z,26.29
2018-06-12T18:09:55.275Z,26.13
2018-06-12T18:12:25.295Z,26.11
2018-06-12T18:14:55.455Z,25.92
2018-06-12T18:17:25.612Z,25.59
2018-06-12T18:20:00.431Z,25.22
2018-06-12T18:22:30.719Z,24.78
2018-06-12T18:25:00.978Z,24.47
2018-06-12T18:27:31.013Z,24.15
2018-06-12T18:30:01.186Z,23.90
2018-06-12T18:32:35.001Z,23.63
2018-06-12T18:35:06.185Z,23.37
2018-06-12T18:37:36.305Z,23.13
2018-06-12T18:40:06.364Z,22.96
2018-06-12T18:42:36.557Z,22.79
2018-06-12T18:45:06.783Z,22.58
2018-06-12T18:47:37.480Z,22.44
2018-06-12T18:50:07.716Z,22.33
2018-06-12T18:52:37.918Z,22.26
2018-06-12T18:55:08.579Z,22.10
2018-06-12T18:57:40.302Z,21.96
2018-06-12T19:00:13.741Z,21.74
2018-06-12T19:02:44.853Z,21.54
2018-06-12T19:05:15.777Z,21.34
2018-06-12T19:07:47.256Z,21.21
2018-06-12T19:10:18.773Z,20.98
2018-06-12T19:12:50.211Z,20.72
2018-06-12T19:15:21.519Z,20.44
2018-06-12T19:17:53.202Z,20.26
2018-06-12T19:20:25.472Z,20.21
2018-06-12T19:22:57.039Z,20.18
2018-06-12T19:25:29.842Z,20.09
2018-06-12T19:28:01.192Z,19.98
2018-06-12T19:30:32.681Z,19.81
2018-06-12T19:33:03.978Z,19.71
2018-06-12T19:35:34.183Z,19.67
2018-06-12T19:38:04.818Z,19.60
2018-06-12T19:40:35.107Z,19.57
2018-06-12T19:43:05.978Z,19.60
2018-06-12T19:45:37.726Z,19.45
2018-06-12T19:48:08.245Z,19.34
2018-06-12T19:50:40.068Z,19.26
2018-06-12T19:53:10.311Z,19.22
2018-06-12T19:55:41.474Z,19.14
2018-06-12T19:58:12.292Z,19.10
2018-06-12T20:00:43.449Z,19.04
2018-06-12T20:03:14.081Z,19.00
2018-06-12T20:05:44.744Z,18.81
2018-06-12T20:08:15.113Z,18.73
2018-06-12T20:10:45.520Z,18.66
2018-06-12T20:13:15.923Z,18.53
2018-06-12T20:15:46.496Z,18.41
2018-06-12T20:18:17.008Z,18.34
2018-06-12T20:20:47.027Z,18.24
2018-06-12T20:23:17.419Z,18.19
2018-06-12T20:25:47.508Z,18.10
2018-06-12T20:28:17.915Z,18.05
2018-06-12T20:30:48.233Z,18.03
2018-06-12T20:33:18.378Z,17.94
2018-06-12T20:35:48.444Z,17.88
2018-06-12T20:38:18.598Z,17.85
2018-06-12T20:40:49.018Z,17.78
2018-06-12T20:43:19.175Z,17.76
2018-06-12T20:45:49.400Z,17.69
2018-06-12T20:48:19.550Z,17.52
2018-06-12T20:50:49.480Z,17.34
2018-06-12T20:53:19.881Z,17.24
2018-06-12T20:55:50.208Z,17.21
2018-06-12T20:58:20.344Z,17.20
2018-06-12T21:00:50.463Z,17.18
2018-06-12T21:03:20.526Z,17.06
2018-06-12T21:05:50.571Z,16.98
2018-06-12T21:08:20.748Z,16.90
2018-06-12T21:10:51.041Z,16.91
2018-06-12T21:13:21.328Z,16.92
2018-06-12T21:15:51.476Z,16.91
2018-06-12T21:18:21.742Z,16.84
2018-06-12T21:20:51.765Z,16.77
2018-06-12T21:23:21.857Z,16.64
2018-06-12T21:25:51.901Z,16.42
2018-06-12T21:28:22.975Z,16.29
2018-06-12T21:30:52.902Z,16.13
2018-06-12T21:33:23.164Z,16.03
2018-06-12T21:35:53.184Z,15.93
2018-06-12T21:38:23.403Z,15.85
2018-06-12T21:40:53.505Z,15.73
2018-06-12T21:43:23.537Z,15.63
2018-06-12T21:45:54.199Z,15.54
2018-06-12T21:48:24.240Z,15.46
2018-06-12T21:50:54.359Z,15.38
2018-06-12T21:53:24.605Z,15.31
2018-06-12T21:55:56.015Z,15.25
2018-06-12T21:58:26.225Z,15.24
2018-06-12T22:00:56.395Z,15.19
2018-06-12T22:03:26.384Z,15.23
2018-06-12T22:05:56.616Z,15.20
2018-06-12T22:08:26.714Z,15.16
2018-06-12T22:10:57.886Z,15.18
2018-06-12T22:13:28.078Z,15.17
2018-06-12T22:15:58.261Z,15.17
2018-06-12T22:18:28.190Z,15.09
2018-06-12T22:20:58.263Z,15.06
2018-06-12T22:23:28.512Z,15.07
2018-06-12T22:25:58.610Z,15.05
2018-06-12T22:28:28.915Z,14.99
2018-06-12T22:30:59.334Z,14.96
2018-06-12T22:33:29.887Z,14.94
2018-06-12T22:36:00.058Z,14.88
2018-06-12T22:38:30.558Z,14.86
2018-06-12T22:41:00.822Z,14.87
2018-06-12T22:43:31.210Z,14.84
2018-06-12T22:46:01.469Z,14.75
2018-06-12T22:48:31.568Z,14.71
2018-06-12T22:51:01.592Z,14.68
2018-06-12T22:53:31.744Z,14.69
2018-06-12T22:56:01.725Z,14.74
2018-06-12T22:58:32.022Z,14.75
2018-06-12T23:01:02.425Z,14.75
2018-06-12T23:03:32.565Z,14.73
2018-06-12T23:06:02.628Z,14.68
2018-06-12T23:08:32.777Z,14.63
2018-06-12T23:11:02.826Z,14.59
2018-06-12T23:13:32.764Z,14.54
2018-06-12T23:16:03.939Z,14.50
2018-06-12T23:18:34.141Z,14.50
2018-06-12T23:21:13.602Z,14.47
2018-06-12T23:23:43.726Z,14.48
2018-06-12T23:26:13.865Z,14.45
2018-06-12T23:28:43.945Z,14.41
2018-06-12T23:31:14.193Z,14.40
2018-06-12T23:33:44.343Z,14.38
2018-06-12T23:36:14.246Z,14.34
2018-06-12T23:38:44.308Z,14.24
2018-06-12T23:41:14.177Z,14.11
2018-06-12T23:43:44.460Z,14.07
2018-06-12T23:46:14.739Z,14.03
2018-06-12T23:48:44.859Z,13.99
2018-06-12T23:51:14.952Z,13.99
2018-06-12T23:53:45.160Z,14.00
2018-06-12T23:56:15.521Z,14.05
2018-06-12T23:58:45.857Z,14.06
